createdAt,value
2022-07-29T00:06:40.191Z,72.59
2022-07-29T00:09:54.940Z,72.86
2022-07-29T00:13:18.647Z,72.21
2022-07-29T00:17:30.638Z,72.65
2022-07-29T00:24:51.855Z,72.76
2022-07-29T00:28:19.975Z,73.21
2022-07-29T00:31:54.286Z,73.58
2022-07-29T00:39:13.791Z,74.28
2022-07-29T00:46:08.411Z,74.89
2022-07-29T00:53:11.676Z,75.34
2022-07-29T00:56:44.939Z,75.70
2022-07-29T01:00:33.163Z,75.67
2022-07-29T01:04:02.602Z,76.10
2022-07-29T01:07:16.445Z,76.55
2022-07-29T01:10:47.464Z,77.13
2022-07-29T01:14:08.736Z,76.85
2022-07-29T01:17:34.806Z,77.15
2022-07-29T01:21:21.502Z,77.51
2022-07-29T01:29:40.322Z,78.01
2022-07-29T01:32:57.920Z,78.19
2022-07-29T01:47:52.223Z,78.47
2022-07-29T01:51:20.204Z,78.37
2022-07-29T01:54:56.806Z,78.08
2022-07-29T01:58:11.466Z,78.05
2022-07-29T02:05:37.039Z,77.63
2022-07-29T02:09:32.090Z,77.40
2022-07-29T02:12:50.927Z,77.96
2022-07-29T02:16:22.097Z,77.44
2022-07-29T02:20:04.565Z,77.72
2022-07-29T02:23:54.118Z,77.60
2022-07-29T02:27:36.761Z,77.71
2022-07-29T02:38:31.482Z,78.37
2022-07-29T02:42:17.378Z,78.37
2022-07-29T02:45:39.811Z,78.73
2022-07-29T02:48:55.743Z,78.95
2022-07-29T02:52:06.370Z,79.43
2022-07-29T02:55:49.649Z,78.80
2022-07-29T03:03:15.519Z,79.67
2022-07-29T03:06:41.472Z,79.56
2022-07-29T03:14:06.564Z,80.24
2022-07-29T03:17:58.429Z,79.80
2022-07-29T03:25:12.379Z,81.01
2022-07-29T03:28:32.699Z,80.90
2022-07-29T03:31:50.651Z,81.13
2022-07-29T03:35:14.074Z,80.96
2022-07-29T03:38:45.447Z,80.72
2022-07-29T03:42:13.004Z,81.03
2022-07-29T03:46:10.866Z,81.09
2022-07-29T03:49:28.703Z,80.96
2022-07-29T03:53:03.765Z,81.06
2022-07-29T03:56:14.977Z,81.19
2022-07-29T03:59:45.929Z,81.33
2022-07-29T04:03:04.582Z,81.25
2022-07-29T04:10:30.062Z,82.00
2022-07-29T04:14:01.334Z,82.01
2022-07-29T04:17:37.722Z,81.86
2022-07-29T04:20:54.147Z,82.46
2022-07-29T04:24:26.194Z,82.06
2022-07-29T04:28:06.459Z,82.25
2022-07-29T04:31:44.457Z,82.22
2022-07-29T04:34:59.437Z,82.12
2022-07-29T04:41:07.674Z,82.23
2022-07-29T04:44:12.246Z,82.44
2022-07-29T04:47:14.951Z,82.76
2022-07-29T04:50:17.797Z,82.93
2022-07-29T04:53:20.682Z,82.54
2022-07-29T04:56:23.501Z,82.63
2022-07-29T04:59:28.127Z,82.32
2022-07-29T05:02:30.883Z,82.30
2022-07-29T05:05:33.706Z,81.90
2022-07-29T05:08:36.806Z,81.55
2022-07-29T05:11:39.930Z,81.46
2022-07-29T05:14:44.183Z,81.30
2022-07-29T05:17:46.942Z,80.33
2022-07-29T05:20:49.734Z,79.04
2022-07-29T05:23:53.039Z,77.73
2022-07-29T05:26:56.079Z,76.91
2022-07-29T05:30:00.437Z,76.01
2022-07-29T05:33:03.174Z,75.27
2022-07-29T05:36:08.041Z,75.22
2022-07-29T05:39:11.448Z,74.77
2022-07-29T05:42:14.257Z,74.70
2022-07-29T05:45:18.500Z,74.01
2022-07-29T05:48:21.612Z,74.01
2022-07-29T05:51:24.322Z,73.46
2022-07-29T05:54:27.114Z,73.35
2022-07-29T05:57:29.861Z,72.81
2022-07-29T06:00:34.026Z,73.03
2022-07-29T06:03:38.668Z,72.10
2022-07-29T06:06:41.445Z,71.06
2022-07-29T06:09:44.966Z,71.63
2022-07-29T06:12:47.673Z,71.40
2022-07-29T06:15:51.757Z,70.41
2022-07-29T06:18:54.516Z,69.44
2022-07-29T06:21:57.640Z,68.70
2022-07-29T06:25:00.459Z,68.17
2022-07-29T06:28:03.340Z,67.68
2022-07-29T06:31:07.533Z,67.50
2022-07-29T06:34:13.105Z,67.68
2022-07-29T06:37:16.378Z,67.70
2022-07-29T06:40:37.126Z,66.56
2022-07-29T06:43:52.139Z,65.84
2022-07-29T06:46:59.112Z,66.12
2022-07-29T06:50:01.839Z,65.16
2022-07-29T06:53:06.212Z,65.87
2022-07-29T06:56:10.143Z,65.50
2022-07-29T06:59:14.081Z,65.41
2022-07-29T07:02:18.231Z,64.04
2022-07-29T07:05:21.014Z,62.85
2022-07-29T07:08:24.725Z,62.19
2022-07-29T07:11:27.484Z,61.45
2022-07-29T07:14:30.335Z,61.03
2022-07-29T07:17:34.523Z,60.54
2022-07-29T07:20:38.365Z,61.94
2022-07-29T07:23:41.078Z,59.56
2022-07-29T07:26:43.781Z,58.01
2022-07-29T07:29:46.605Z,57.46
2022-07-29T07:32:51.105Z,56.72
2022-07-29T07:35:53.818Z,57.50
2022-07-29T07:38:56.566Z,57.90
2022-07-29T07:41:59.253Z,57.95
2022-07-29T07:45:13.464Z,56.70
2022-07-29T07:48:18.742Z,55.28
2022-07-29T07:51:21.886Z,54.10
2022-07-29T07:54:24.694Z,52.70
2022-07-29T07:57:27.574Z,52.01
2022-07-29T08:00:30.386Z,51.89
2022-07-29T08:03:34.857Z,51.78
2022-07-29T08:06:37.926Z,52.07
2022-07-29T08:09:40.653Z,50.75
2022-07-29T08:12:43.426Z,51.07
2022-07-29T08:15:46.940Z,51.15
2022-07-29T08:18:51.247Z,49.02
2022-07-29T08:21:55.473Z,48.67
2022-07-29T08:24:58.478Z,48.36
2022-07-29T08:28:01.271Z,46.51
2022-07-29T08:31:04.066Z,45.48
2022-07-29T08:34:08.347Z,45.43
2022-07-29T08:37:11.074Z,44.85
2022-07-29T08:40:15.061Z,45.88
2022-07-29T08:43:18.183Z,44.36
2022-07-29T08:46:21.745Z,45.68
2022-07-29T08:49:25.989Z,45.69
2022-07-29T08:52:31.412Z,46.27
2022-07-29T08:55:34.840Z,45.90
2022-07-29T08:58:38.467Z,45.54
2022-07-29T09:01:45.044Z,45.36
2022-07-29T09:04:49.756Z,44.78
2022-07-29T09:07:53.407Z,44.37
2022-07-29T09:10:56.935Z,43.95
2022-07-29T09:13:59.603Z,42.48
2022-07-29T09:17:02.892Z,41.59
2022-07-29T09:20:13.089Z,42.33
2022-07-29T09:23:23.044Z,42.48
2022-07-29T09:26:30.602Z,42.93
2022-07-29T09:29:36.288Z,42.35
2022-07-29T09:32:57.569Z,43.44
2022-07-29T09:36:05.786Z,42.90
2022-07-29T09:39:09.390Z,43.72
2022-07-29T09:42:12.499Z,43.34
2022-07-29T09:45:29.096Z,42.68
2022-07-29T09:48:32.170Z,42.66
2022-07-29T09:51:38.148Z,42.50
2022-07-29T09:54:41.406Z,41.64
2022-07-29T09:57:45.026Z,39.78
2022-07-29T10:00:48.609Z,41.11
2022-07-29T10:03:54.473Z,41.36
2022-07-29T10:07:04.347Z,41.31
2022-07-29T10:10:07.895Z,43.13
2022-07-29T10:13:15.663Z,43.26
2022-07-29T10:16:19.727Z,44.71
2022-07-29T10:19:22.779Z,44.46
2022-07-29T10:22:52.025Z,44.64
2022-07-29T10:25:49.774Z,45.61
2022-07-29T10:28:52.481Z,45.76
2022-07-29T10:32:09.536Z,46.30
2022-07-29T10:35:21.784Z,46.69
2022-07-29T10:38:31.790Z,46.41
2022-07-29T10:42:04.282Z,46.98
2022-07-29T10:45:08.695Z,46.73
2022-07-29T10:48:11.561Z,47.26
2022-07-29T10:51:18.050Z,47.62
2022-07-29T10:54:37.725Z,48.04
2022-07-29T10:58:13.486Z,47.86
2022-07-29T11:01:37.222Z,49.27
2022-07-29T11:05:05.141Z,51.12
2022-07-29T11:08:27.981Z,57.01
2022-07-29T11:11:35.009Z,58.34
2022-07-29T11:14:58.977Z,62.44
2022-07-29T11:18:14.976Z,65.44
2022-07-29T11:21:54.792Z,68.38
2022-07-29T11:25:16.693Z,66.26
2022-07-29T11:28:25.262Z,58.19
2022-07-29T11:31:39.492Z,58.55
2022-07-29T11:34:42.673Z,57.82
2022-07-29T11:37:46.058Z,59.39
2022-07-29T11:41:23.049Z,59.43
2022-07-29T11:44:57.163Z,59.26
2022-07-29T11:48:29.267Z,58.58
2022-07-29T11:51:33.007Z,57.71
2022-07-29T11:54:57.551Z,56.86
2022-07-29T11:58:03.908Z,57.45
2022-07-29T12:01:07.298Z,59.56
2022-07-29T12:04:11.549Z,60.29
2022-07-29T12:07:16.991Z,59.17
2022-07-29T12:10:29.994Z,58.06
2022-07-29T12:13:41.126Z,58.18
2022-07-29T12:16:43.917Z,58.45
2022-07-29T12:19:48.609Z,57.37
2022-07-29T12:22:55.460Z,56.06
2022-07-29T12:26:00.482Z,57.06
2022-07-29T12:29:03.985Z,56.66
2022-07-29T12:32:14.420Z,57.05
2022-07-29T12:35:22.047Z,57.14
2022-07-29T12:38:25.138Z,58.12
2022-07-29T12:41:29.889Z,57.80
2022-07-29T12:44:46.337Z,58.66
2022-07-29T12:47:55.728Z,59.56
2022-07-29T12:51:02.375Z,58.90
2022-07-29T12:54:11.475Z,59.49
2022-07-29T12:57:20.089Z,59.83
2022-07-29T13:00:25.876Z,59.72
2022-07-29T13:03:28.801Z,58.64
2022-07-29T13:06:41.560Z,58.89
2022-07-29T13:09:46.679Z,58.71
2022-07-29T13:13:11.373Z,58.49
2022-07-29T13:16:14.255Z,57.42
2022-07-29T13:19:17.032Z,55.35
2022-07-29T13:22:22.684Z,56.30
2022-07-29T13:25:26.933Z,56.01
2022-07-29T13:28:29.930Z,55.69
2022-07-29T13:31:32.677Z,55.48
2022-07-29T13:34:35.571Z,54.82
2022-07-29T13:37:40.054Z,53.07
2022-07-29T13:40:43.420Z,53.87
2022-07-29T13:43:46.174Z,53.90
2022-07-29T13:46:52.796Z,52.62
2022-07-29T13:49:55.706Z,54.12
2022-07-29T13:52:59.908Z,53.84
2022-07-29T13:56:02.634Z,52.30
2022-07-29T13:59:05.309Z,51.78
2022-07-29T14:02:08.501Z,52.20
2022-07-29T14:05:11.862Z,52.55
2022-07-29T14:08:16.021Z,50.55
2022-07-29T14:11:18.924Z,49.23
2022-07-29T14:14:22.019Z,49.63
2022-07-29T14:17:24.907Z,49.77
2022-07-29T14:20:29.533Z,48.93
2022-07-29T14:23:33.582Z,48.81
2022-07-29T14:26:36.384Z,48.13
2022-07-29T14:29:39.806Z,48.14
2022-07-29T14:32:42.800Z,47.95
2022-07-29T14:35:47.420Z,48.09
2022-07-29T14:38:51.788Z,46.67
2022-07-29T14:41:55.093Z,46.31
2022-07-29T14:44:57.940Z,46.46
2022-07-29T14:48:01.297Z,45.08
2022-07-29T14:51:04.995Z,44.37
2022-07-29T14:54:09.728Z,43.53
2022-07-29T14:57:13.358Z,43.90
2022-07-29T15:00:16.661Z,44.08
2022-07-29T15:03:23.911Z,44.14
2022-07-29T15:06:27.277Z,44.78
2022-07-29T15:09:31.364Z,44.76
2022-07-29T15:12:34.506Z,44.88
2022-07-29T15:15:37.267Z,44.64
2022-07-29T15:18:40.333Z,45.44
2022-07-29T15:21:59.281Z,45.83
2022-07-29T15:25:04.002Z,46.49
2022-07-29T15:28:08.755Z,45.37
2022-07-29T15:31:11.454Z,43.99
2022-07-29T15:34:14.217Z,43.40
2022-07-29T15:37:17.030Z,42.45
2022-07-29T15:40:21.178Z,42.11
2022-07-29T15:43:24.071Z,41.35
2022-07-29T15:46:46.971Z,40.81
2022-07-29T15:49:50.514Z,40.36
2022-07-29T15:52:53.281Z,39.81
2022-07-29T15:55:57.380Z,39.39
2022-07-29T15:59:00.938Z,37.93
2022-07-29T16:02:03.950Z,38.71
2022-07-29T16:05:09.480Z,38.42
2022-07-29T16:08:12.597Z,38.83
2022-07-29T16:11:16.750Z,38.78
2022-07-29T16:14:19.520Z,39.35
2022-07-29T16:17:22.253Z,38.44
2022-07-29T16:20:25.392Z,39.14
2022-07-29T16:23:28.281Z,38.97
2022-07-29T16:26:32.522Z,39.54
2022-07-29T16:29:36.891Z,40.44
2022-07-29T16:32:40.202Z,42.04
2022-07-29T16:35:42.896Z,41.91
2022-07-29T16:38:47.248Z,41.16
2022-07-29T16:41:55.927Z,39.25
2022-07-29T16:45:03.132Z,38.54
2022-07-29T16:48:07.080Z,38.79
2022-07-29T16:51:10.803Z,38.86
2022-07-29T16:54:18.501Z,38.83
2022-07-29T16:57:23.700Z,38.93
2022-07-29T17:00:27.423Z,39.09
2022-07-29T17:03:31.570Z,38.53
2022-07-29T17:06:36.897Z,38.71
2022-07-29T17:09:40.575Z,39.33
2022-07-29T17:12:45.943Z,40.23
2022-07-29T17:15:49.699Z,44.42
2022-07-29T17:18:55.711Z,45.24
2022-07-29T17:22:07.052Z,46.12
2022-07-29T17:25:20.501Z,46.94
2022-07-29T17:28:27.555Z,46.82
2022-07-29T17:31:32.374Z,48.02
2022-07-29T17:34:36.534Z,47.23
2022-07-29T17:37:40.288Z,47.39
2022-07-29T17:40:44.214Z,46.44
2022-07-29T17:43:50.148Z,45.32
2022-07-29T17:46:53.803Z,43.32
2022-07-29T17:49:57.480Z,43.00
2022-07-29T17:53:01.268Z,44.25
2022-07-29T17:56:05.976Z,44.18
2022-07-29T17:59:11.538Z,43.95
2022-07-29T18:02:15.445Z,44.89
2022-07-29T18:05:19.691Z,45.58
2022-07-29T18:08:23.893Z,46.51
2022-07-29T18:11:28.228Z,46.08
2022-07-29T18:14:34.047Z,46.98
2022-07-29T18:17:56.780Z,45.02
2022-07-29T18:21:01.269Z,43.85
2022-07-29T18:24:06.238Z,41.14
2022-07-29T18:27:10.326Z,41.24
2022-07-29T18:30:16.240Z,41.90
2022-07-29T18:33:22.533Z,41.75
2022-07-29T18:36:26.492Z,39.90
2022-07-29T18:39:30.225Z,40.58
2022-07-29T18:42:34.391Z,42.65
2022-07-29T18:45:40.043Z,42.70
2022-07-29T18:48:43.684Z,43.00
2022-07-29T18:51:47.275Z,44.15
2022-07-29T18:54:50.871Z,44.90
2022-07-29T18:57:57.247Z,44.98
2022-07-29T19:01:02.585Z,45.50
2022-07-29T19:04:06.664Z,46.01
2022-07-29T19:07:10.444Z,45.70
2022-07-29T19:10:14.393Z,46.97
2022-07-29T19:13:17.974Z,46.90
2022-07-29T19:16:23.431Z,48.01
2022-07-29T19:19:27.213Z,48.92
2022-07-29T19:22:30.942Z,49.94
2022-07-29T19:25:35.650Z,49.60
2022-07-29T19:28:39.388Z,49.52
2022-07-29T19:31:47.518Z,50.22
2022-07-29T19:35:04.710Z,49.88
2022-07-29T19:38:08.676Z,50.39
2022-07-29T19:41:14.516Z,51.58
2022-07-29T19:44:18.474Z,51.40
2022-07-29T19:47:23.671Z,50.96
2022-07-29T19:50:28.570Z,52.23
2022-07-29T19:53:33.015Z,52.24
2022-07-29T19:56:38.039Z,53.25
2022-07-29T19:59:46.007Z,53.39
2022-07-29T20:02:52.997Z,53.69
2022-07-29T20:06:05.845Z,51.04
2022-07-29T20:09:09.354Z,50.41
2022-07-29T20:12:24.977Z,51.94
2022-07-29T20:15:29.635Z,52.06
2022-07-29T20:18:35.640Z,53.01
2022-07-29T20:21:39.639Z,53.27
2022-07-29T20:24:43.239Z,52.88
2022-07-29T20:27:50.824Z,53.47
2022-07-29T20:30:54.519Z,54.34
2022-07-29T20:33:59.982Z,55.33
2022-07-29T20:37:03.843Z,55.84
2022-07-29T20:40:12.474Z,56.33
2022-07-29T20:43:17.160Z,57.06
2022-07-29T20:46:22.051Z,57.92
2022-07-29T20:49:27.203Z,58.33
2022-07-29T20:52:31.513Z,59.67
2022-07-29T20:55:35.983Z,59.69
2022-07-29T20:58:41.001Z,60.93
2022-07-29T21:01:44.786Z,61.42
2022-07-29T21:04:49.863Z,62.53
2022-07-29T21:07:58.302Z,62.97
2022-07-29T21:11:02.285Z,63.55
2022-07-29T21:14:06.529Z,64.18
2022-07-29T21:17:10.645Z,65.10
2022-07-29T21:20:17.133Z,65.75
2022-07-29T21:23:20.999Z,66.32
2022-07-29T21:26:25.375Z,67.97
2022-07-29T21:29:27.920Z,67.31
2022-07-29T21:32:31.824Z,67.00
2022-07-29T21:36:06.346Z,66.92
2022-07-29T21:39:07.023Z,68.40
2022-07-29T21:42:11.052Z,69.88
2022-07-29T21:45:15.298Z,70.72
2022-07-29T21:48:20.076Z,70.26
2022-07-29T21:51:25.219Z,69.40
2022-07-29T21:54:29.045Z,70.19
2022-07-29T21:57:33.184Z,70.04
2022-07-29T22:00:37.397Z,69.23
2022-07-29T22:03:41.176Z,70.22
2022-07-29T22:06:46.372Z,70.42
2022-07-29T22:09:49.912Z,70.87
2022-07-29T22:12:57.599Z,71.44
2022-07-29T22:16:01.124Z,71.60
2022-07-29T22:19:05.106Z,71.86
2022-07-29T22:22:10.265Z,72.78
2022-07-29T22:25:14.413Z,73.12
2022-07-29T22:28:18.017Z,73.50
2022-07-29T22:31:21.934Z,73.63
2022-07-29T22:34:29.093Z,73.61
2022-07-29T22:37:42.918Z,74.12
2022-07-29T22:40:46.983Z,74.68
2022-07-29T22:43:51.470Z,75.29
2022-07-29T22:46:54.234Z,75.59
2022-07-29T22:49:57.097Z,75.50
2022-07-29T22:53:01.448Z,76.45
2022-07-29T22:56:04.624Z,76.92
2022-07-29T22:59:07.830Z,77.12
2022-07-29T23:02:10.648Z,77.64
2022-07-29T23:05:15.603Z,77.30
2022-07-29T23:08:20.259Z,77.28
2022-07-29T23:11:23.177Z,76.57
2022-07-29T23:14:25.899Z,75.11
2022-07-29T23:17:28.998Z,74.83
2022-07-29T23:20:31.839Z,74.37
2022-07-29T23:23:38.298Z,75.28
2022-07-29T23:26:41.006Z,75.26
2022-07-29T23:29:43.698Z,75.67
2022-07-29T23:32:46.540Z,76.53
2022-07-29T23:35:49.350Z,76.77
2022-07-29T23:38:54.984Z,76.95
2022-07-29T23:41:57.717Z,77.01
2022-07-29T23:45:00.486Z,76.15
2022-07-29T23:48:03.197Z,76.83
2022-07-29T23:51:05.938Z,77.07
2022-07-29T23:54:10.030Z,76.44
2022-07-29T23:57:12.822Z,76.67
